createdAt,value
2022-09-15T00:01:52.135Z,98482.14
2022-09-15T00:06:55.511Z,98478.57
2022-09-15T00:11:58.930Z,98470.86
2022-09-15T00:17:02.193Z,98464.72
2022-09-15T00:22:05.648Z,98469.34
2022-09-15T00:27:09.163Z,98473.86
2022-09-15T00:32:12.374Z,98477.13
2022-09-15T00:37:15.686Z,98476.63
2022-09-15T00:42:22.066Z,98471.27
2022-09-15T00:47:29.772Z,98466.25
2022-09-15T00:52:44.559Z,98463.58
2022-09-15T00:58:00.030Z,98459.15
2022-09-15T01:03:04.735Z,98464.09
2022-09-15T01:08:36.885Z,98458.50
2022-09-15T01:13:40.200Z,98462.21
2022-09-15T01:18:55.387Z,98455.94
2022-09-15T01:24:20.405Z,98455.97
2022-09-15T01:29:23.613Z,98453.58
2022-09-15T01:34:30.713Z,98448.05
2022-09-15T01:39:40.682Z,98445.52
2022-09-15T01:44:49.830Z,98437.42
2022-09-15T01:49:57.340Z,98431.39
2022-09-15T01:55:05.871Z,98426.77
2022-09-15T02:00:09.897Z,98421.59
2022-09-15T02:05:16.845Z,98420.17
2022-09-15T02:10:37.408Z,98419.09
2022-09-15T02:15:43.971Z,98419.75
2022-09-15T02:20:53.758Z,98420.23
2022-09-15T02:26:04.965Z,98417.28
2022-09-15T02:31:18.417Z,98412.92
2022-09-15T02:36:22.736Z,98407.77
2022-09-15T02:41:27.033Z,98402.27
2022-09-15T02:46:30.593Z,98405.29
2022-09-15T02:51:34.309Z,98408.50
2022-09-15T02:56:38.135Z,98405.88
2022-09-15T03:01:41.477Z,98401.55
2022-09-15T03:06:44.793Z,98400.34
2022-09-15T03:11:47.962Z,98394.95
2022-09-15T03:16:51.270Z,98395.61
2022-09-15T03:21:54.686Z,98396.09
2022-09-15T03:26:57.893Z,98389.14
2022-09-15T03:32:01.511Z,98392.98
2022-09-15T03:37:05.642Z,98391.69
2022-09-15T03:42:09.055Z,98392.14
2022-09-15T03:47:12.673Z,98385.61
2022-09-15T03:52:15.879Z,98382.85
2022-09-15T03:57:19.088Z,98386.17
2022-09-15T04:02:22.445Z,98381.99
2022-09-15T04:07:26.149Z,98378.04
2022-09-15T04:12:32.312Z,98378.03
2022-09-15T04:17:36.018Z,98373.02
2022-09-15T04:22:39.532Z,98374.45
2022-09-15T04:27:43.049Z,98371.23
2022-09-15T04:32:46.261Z,98370.02
2022-09-15T04:37:49.567Z,98369.62
2022-09-15T04:42:53.187Z,98368.23
2022-09-15T04:47:56.809Z,98371.91
2022-09-15T04:53:00.115Z,98379.15
2022-09-15T04:58:04.143Z,98377.97
2022-09-15T05:03:07.452Z,98372.88
2022-09-15T05:08:11.175Z,98374.64
2022-09-15T05:13:14.895Z,98375.27
2022-09-15T05:18:18.307Z,98372.20
2022-09-15T05:23:21.514Z,98369.69
2022-09-15T05:28:25.337Z,98372.89
2022-09-15T05:33:28.855Z,98363.81
2022-09-15T05:38:32.779Z,98361.46
2022-09-15T05:43:37.486Z,98360.48
2022-09-15T05:48:40.742Z,98361.88
2022-09-15T05:53:44.042Z,98369.98
2022-09-15T05:58:49.419Z,98367.98
2022-09-15T06:03:53.222Z,98359.25
2022-09-15T06:08:58.783Z,98356.63
2022-09-15T06:14:03.969Z,98349.41
2022-09-15T06:19:07.693Z,98344.07
2022-09-15T06:24:12.851Z,98345.45
2022-09-15T06:29:16.125Z,98341.86
2022-09-15T06:34:19.333Z,98343.20
2022-09-15T06:39:22.553Z,98337.23
2022-09-15T06:44:25.753Z,98337.75
2022-09-15T06:49:29.372Z,98341.77
2022-09-15T06:54:32.781Z,98342.13
2022-09-15T06:59:36.092Z,98341.02
2022-09-15T07:04:44.525Z,98344.45
2022-09-15T07:09:49.139Z,98345.65
2022-09-15T07:14:52.577Z,98350.51
2022-09-15T07:19:55.995Z,98359.89
2022-09-15T07:24:59.303Z,98360.80
2022-09-15T07:30:04.053Z,98362.08
2022-09-15T07:35:08.074Z,98356.61
2022-09-15T07:40:12.310Z,98355.05
2022-09-15T07:45:15.820Z,98353.92
2022-09-15T07:50:19.029Z,98350.02
2022-09-15T07:55:22.446Z,98348.45
2022-09-15T08:00:26.411Z,98345.02
2022-09-15T08:05:29.578Z,98343.44
2022-09-15T08:10:33.091Z,98340.38
2022-09-15T08:15:39.267Z,98332.79
2022-09-15T08:20:43.604Z,98324.92
2022-09-15T08:25:47.938Z,98328.14
2022-09-15T08:30:57.997Z,98328.00
2022-09-15T08:36:06.951Z,98335.96
2022-09-15T08:41:33.302Z,98340.81
2022-09-15T08:46:45.592Z,98341.51
2022-09-15T08:51:51.190Z,98338.85
2022-09-15T08:56:56.790Z,98340.07
2022-09-15T09:02:37.518Z,98332.29
2022-09-15T09:08:07.988Z,98329.61
2022-09-15T09:13:50.313Z,98344.66
2022-09-15T09:19:08.675Z,98338.91
2022-09-15T09:24:11.781Z,98335.70
2022-09-15T09:29:31.374Z,98333.50
2022-09-15T09:34:44.616Z,98326.77
2022-09-15T09:39:48.386Z,98328.33
2022-09-15T09:44:51.752Z,98332.90
2022-09-15T09:49:54.959Z,98331.52
2022-09-15T09:55:02.575Z,98332.59
2022-09-15T10:00:06.600Z,98332.27
2022-09-15T10:05:09.880Z,98339.23
2022-09-15T10:10:28.889Z,98341.02
2022-09-15T10:15:35.449Z,98338.92
2022-09-15T10:20:51.442Z,98337.34
2022-09-15T10:26:32.475Z,98349.75
2022-09-15T10:31:36.029Z,98350.98
2022-09-15T10:36:39.305Z,98347.45
2022-09-15T10:42:17.643Z,98344.86
2022-09-15T10:47:32.618Z,98346.38
2022-09-15T10:52:50.780Z,98354.11
2022-09-15T10:58:26.446Z,98349.61
2022-09-15T11:03:51.159Z,98348.44
2022-09-15T11:09:13.313Z,98337.65
2022-09-15T11:14:31.777Z,98341.11
2022-09-15T11:19:43.385Z,98337.52
2022-09-15T11:25:13.124Z,98337.96
2022-09-15T11:30:20.726Z,98334.83
2022-09-15T11:35:48.201Z,98337.63
2022-09-15T11:41:04.113Z,98331.06
2022-09-15T11:46:13.812Z,98327.48
2022-09-15T11:51:21.891Z,98339.19
2022-09-15T11:56:32.472Z,98340.48
2022-09-15T12:01:42.068Z,98342.06
2022-09-15T12:07:17.493Z,98340.02
2022-09-15T12:12:22.647Z,98331.80
2022-09-15T12:17:37.837Z,98332.63
2022-09-15T12:22:59.785Z,98322.01
2022-09-15T12:28:40.368Z,98329.64
2022-09-15T12:33:43.578Z,98322.64
2022-09-15T12:38:49.792Z,98310.52
2022-09-15T12:43:59.421Z,98313.32
2022-09-15T12:49:03.995Z,98315.95
2022-09-15T12:54:09.108Z,98311.92
2022-09-15T12:59:15.317Z,98313.79
2022-09-15T13:04:25.150Z,98316.29
2022-09-15T13:09:29.081Z,98318.21
2022-09-15T13:14:40.290Z,98319.52
2022-09-15T13:19:47.604Z,98317.02
2022-09-15T13:25:04.198Z,98314.64
2022-09-15T13:30:26.351Z,98313.91
2022-09-15T13:35:32.426Z,98313.42
2022-09-15T13:40:38.297Z,98312.80
2022-09-15T13:45:54.022Z,98309.69
2022-09-15T13:51:03.554Z,98312.20
2022-09-15T13:56:13.624Z,98302.38
2022-09-15T14:01:21.678Z,98299.30
2022-09-15T14:06:41.655Z,98302.02
2022-09-15T14:11:49.076Z,98300.29
2022-09-15T14:16:52.918Z,98305.97
2022-09-15T14:21:58.572Z,98308.27
2022-09-15T14:27:10.315Z,98335.73
2022-09-15T14:32:16.632Z,98325.34
2022-09-15T14:37:28.616Z,98319.73
2022-09-15T14:42:40.458Z,98325.77
2022-09-15T14:47:43.983Z,98337.73
2022-09-15T14:52:53.533Z,98353.46
2022-09-15T14:58:13.842Z,98350.33
2022-09-15T15:03:43.164Z,98350.44
2022-09-15T15:08:49.544Z,98351.32
2022-09-15T15:13:53.636Z,98356.05
2022-09-15T15:18:57.803Z,98349.59
2022-09-15T15:24:09.848Z,98342.79
2022-09-15T15:29:43.336Z,98331.81
2022-09-15T15:34:58.833Z,98334.45
2022-09-15T15:40:07.093Z,98332.94
2022-09-15T15:45:13.751Z,98326.55
2022-09-15T15:50:21.041Z,98322.98
2022-09-15T15:55:31.225Z,98323.64
2022-09-15T16:00:44.931Z,98325.88
2022-09-15T16:05:58.332Z,98329.97
2022-09-15T16:11:03.346Z,98332.14
2022-09-15T16:16:19.827Z,98332.05
2022-09-15T16:21:37.205Z,98328.15
2022-09-15T16:26:40.856Z,98328.88
2022-09-15T16:31:44.494Z,98331.57
2022-09-15T16:36:47.782Z,98328.89
2022-09-15T16:41:51.432Z,98329.84
2022-09-15T16:46:54.655Z,98327.70
2022-09-15T16:51:57.777Z,98327.10
2022-09-15T16:57:01.230Z,98332.91
2022-09-15T17:02:12.680Z,98332.48
2022-09-15T17:07:16.046Z,98336.31
2022-09-15T17:12:20.761Z,98334.38
2022-09-15T17:17:25.134Z,98335.66
2022-09-15T17:22:28.436Z,98340.29
2022-09-15T17:27:31.644Z,98342.58
2022-09-15T17:32:35.087Z,98332.84
2022-09-15T17:37:38.367Z,98343.25
2022-09-15T17:42:42.726Z,98346.67
2022-09-15T17:47:46.950Z,98343.46
2022-09-15T17:52:50.756Z,98339.70
2022-09-15T17:57:55.376Z,98341.48
2022-09-15T18:03:02.239Z,98344.79
2022-09-15T18:08:06.116Z,98340.57
2022-09-15T18:13:23.970Z,98345.19
2022-09-15T18:18:28.610Z,98342.04
2022-09-15T18:23:31.819Z,98348.73
2022-09-15T18:28:35.026Z,98357.59
2022-09-15T18:33:38.131Z,98355.05
2022-09-15T18:38:42.075Z,98350.89
2022-09-15T18:43:50.360Z,98355.98
2022-09-15T18:48:56.078Z,98356.73
2022-09-15T18:53:59.465Z,98351.58
2022-09-15T18:59:02.783Z,98349.09
2022-09-15T19:04:05.985Z,98348.17
2022-09-15T19:09:09.297Z,98348.27
2022-09-15T19:14:12.503Z,98349.39
2022-09-15T19:19:15.711Z,98348.98
2022-09-15T19:24:20.661Z,98342.93
2022-09-15T19:29:30.729Z,98342.66
2022-09-15T19:34:35.269Z,98339.75
2022-09-15T19:39:39.501Z,98347.48
2022-09-15T19:44:42.613Z,98347.36
2022-09-15T19:49:45.918Z,98345.77
2022-09-15T19:54:49.127Z,98348.23
2022-09-15T19:59:52.397Z,98351.89
2022-09-15T20:04:56.567Z,98358.52
2022-09-15T20:09:59.678Z,98357.49
2022-09-15T20:15:02.984Z,98359.20
2022-09-15T20:20:06.732Z,98355.86
2022-09-15T20:25:09.926Z,98356.91
2022-09-15T20:30:14.555Z,98358.72
2022-09-15T20:35:17.866Z,98351.67
2022-09-15T20:40:21.123Z,98356.91
2022-09-15T20:45:24.592Z,98352.92
2022-09-15T20:50:27.695Z,98346.98
2022-09-15T20:55:30.804Z,98350.70
2022-09-15T21:00:34.113Z,98355.02
2022-09-15T21:05:37.427Z,98356.05
2022-09-15T21:10:45.782Z,98354.23
2022-09-15T21:16:00.390Z,98350.99
2022-09-15T21:21:09.706Z,98346.71
2022-09-15T21:26:15.486Z,98346.98
2022-09-15T21:31:30.392Z,98352.27
2022-09-15T21:36:33.951Z,98350.34
2022-09-15T21:41:37.256Z,98349.55
2022-09-15T21:46:40.363Z,98345.81
2022-09-15T21:51:43.572Z,98340.22
2022-09-15T21:56:47.086Z,98341.92
2022-09-15T22:01:50.328Z,98338.13
2022-09-15T22:06:54.323Z,98335.87
2022-09-15T22:11:57.531Z,98336.83
2022-09-15T22:17:00.844Z,98334.88
2022-09-15T22:22:04.255Z,98330.52
2022-09-15T22:27:07.462Z,98329.73
2022-09-15T22:32:10.673Z,98326.75
2022-09-15T22:37:13.880Z,98323.93
2022-09-15T22:42:17.191Z,98317.54
2022-09-15T22:47:20.296Z,98321.13
2022-09-15T22:52:23.505Z,98333.26
2022-09-15T22:57:26.713Z,98326.96
2022-09-15T23:02:29.820Z,98315.99
2022-09-15T23:07:34.058Z,98314.97
2022-09-15T23:12:37.055Z,98328.03
2022-09-15T23:17:41.389Z,98322.59
2022-09-15T23:22:44.598Z,98327.92
2022-09-15T23:27:47.910Z,98319.52
2022-09-15T23:32:51.227Z,98322.04
2022-09-15T23:37:54.529Z,98331.25
2022-09-15T23:42:57.739Z,98334.60
2022-09-15T23:48:01.053Z,98333.04
2022-09-15T23:53:04.669Z,98331.77
2022-09-15T23:58:08.083Z,98329.44
